Terminal Aerodrome Forecast
Issued by NWS

Home | Current Version | Previous Version | Text Only | Print | Product List | Glossary On
Versions: 1 2 3 4 5 6 7 8 9 10 11 12 13 14 15 16 17 18 19 20 21 22 23 24 25 26 27 28 29 30 31 32 33 34
000
FTUS41 KGYX 011123
TAFLEB
TAF
KLEB 011123Z 0112/0212 16007KT 3SM -RA BR OVC030
      TEMPO 0112/0114 3SM TSRA OVC030CB
     FM012200 18008KT 1 1/2SM SHRA BR OVC015
     FM020400 27007KT P6SM BKN050=

USA.gov is the U.S. government's official web portal to all federal, state and local government web resources and services.